createdAt,value
2017-02-27T00:00:26.760Z,731.79
2017-02-27T00:01:26.745Z,731.76
2017-02-27T00:02:26.732Z,731.78
2017-02-27T00:03:26.715Z,731.72
2017-02-27T00:04:26.696Z,731.75
2017-02-27T00:05:26.682Z,731.76
2017-02-27T00:06:26.665Z,731.69
2017-02-27T00:07:26.649Z,731.68
2017-02-27T00:08:26.630Z,731.69
2017-02-27T00:09:26.616Z,731.71
2017-02-27T00:10:26.600Z,731.72
2017-02-27T00:11:26.584Z,731.71
2017-02-27T00:12:26.563Z,731.71
2017-02-27T00:13:26.550Z,731.67
2017-02-27T00:14:26.530Z,731.65
2017-02-27T00:15:26.518Z,731.69
2017-02-27T00:16:26.497Z,731.7
2017-02-27T00:17:26.481Z,731.67
2017-02-27T00:18:26.469Z,731.72
2017-02-27T00:19:26.449Z,731.63
2017-02-27T00:20:26.431Z,731.68
2017-02-27T00:21:26.414Z,731.64
2017-02-27T00:22:26.403Z,731.61
2017-02-27T00:23:26.387Z,731.64
2017-02-27T00:24:26.366Z,731.62
2017-02-27T00:25:26.354Z,731.61
2017-02-27T00:26:26.333Z,731.49
2017-02-27T00:27:26.321Z,731.65
2017-02-27T00:28:26.306Z,731.59
2017-02-27T00:29:26.289Z,731.58
2017-02-27T00:30:26.273Z,731.54
2017-02-27T00:31:26.256Z,731.56
2017-02-27T00:32:26.235Z,731.52
2017-02-27T00:33:26.223Z,731.48
2017-02-27T00:34:26.207Z,731.44
2017-02-27T00:35:26.187Z,731.49
2017-02-27T00:36:26.170Z,731.51
2017-02-27T00:37:26.157Z,731.44
2017-02-27T00:38:26.137Z,731.42
2017-02-27T00:39:26.125Z,731.41
2017-02-27T00:40:26.104Z,731.41
2017-02-27T00:41:26.093Z,731.49
2017-02-27T00:42:26.076Z,731.51
2017-02-27T00:43:26.055Z,731.45
2017-02-27T00:44:26.042Z,731.43
2017-02-27T00:45:26.022Z,731.41
2017-02-27T00:46:26.006Z,731.44
2017-02-27T00:47:25.992Z,731.38
2017-02-27T00:48:25.977Z,731.33
2017-02-27T00:49:25.993Z,731.39
2017-02-27T00:50:25.939Z,731.36
2017-02-27T00:51:25.927Z,731.42
2017-02-27T00:52:25.910Z,731.41
2017-02-27T00:53:25.889Z,731.39
2017-02-27T00:54:25.876Z,731.37
2017-02-27T00:55:25.860Z,731.4
2017-02-27T00:56:25.840Z,731.38
2017-02-27T00:57:25.823Z,731.42
2017-02-27T00:58:25.807Z,731.39
2017-02-27T00:59:25.790Z,731.34
2017-02-27T01:00:25.777Z,731.36
2017-02-27T01:01:25.757Z,731.33
2017-02-27T01:02:25.741Z,731.36
2017-02-27T01:03:25.730Z,731.4
2017-02-27T01:04:25.707Z,731.37
2017-02-27T01:05:25.692Z,731.41
2017-02-27T01:06:25.675Z,731.37
2017-02-27T01:07:25.657Z,731.3
2017-02-27T01:08:25.644Z,731.29
2017-02-27T01:09:25.627Z,731.32
2017-02-27T01:10:25.610Z,731.29
2017-02-27T01:11:25.597Z,731.3
2017-02-27T01:12:25.581Z,731.29
2017-02-27T01:13:25.561Z,731.25
2017-02-27T01:14:25.549Z,731.17
2017-02-27T01:15:25.528Z,731.2
2017-02-27T01:16:25.512Z,731.29
2017-02-27T01:17:25.500Z,731.25
2017-02-27T01:18:25.480Z,731.24
2017-02-27T01:19:25.466Z,731.23
2017-02-27T01:20:25.446Z,731.24
2017-02-27T01:21:25.430Z,731.22
2017-02-27T01:22:25.414Z,731.21
2017-02-27T01:23:25.398Z,731.22
2017-02-27T01:24:25.386Z,731.21
2017-02-27T01:25:25.368Z,731.2
2017-02-27T01:26:25.354Z,731.2
2017-02-27T01:27:25.338Z,731.16
2017-02-27T01:28:25.318Z,731.21
2017-02-27T01:29:25.302Z,731.19
2017-02-27T01:30:25.290Z,731.18
2017-02-27T01:31:25.271Z,731.12
2017-02-27T01:32:25.260Z,731.13
2017-02-27T01:33:25.283Z,731.12
2017-02-27T01:34:25.228Z,731.15
2017-02-27T01:52:49.097Z,731.01
2017-02-27T01:53:49.075Z,730.99
2017-02-27T01:54:49.056Z,731.01
2017-02-27T01:55:49.041Z,730.98
2017-02-27T01:56:49.027Z,730.93
2017-02-27T01:57:49.014Z,730.86
2017-02-27T01:58:49.000Z,730.87
2017-02-27T01:59:48.984Z,730.9
2017-02-27T02:00:48.968Z,730.93
2017-02-27T02:01:48.954Z,730.94
2017-02-27T02:02:48.937Z,730.88
2017-02-27T02:03:48.919Z,730.9
2017-02-27T02:04:48.902Z,730.85
2017-02-27T02:05:48.892Z,730.88
2017-02-27T02:06:48.871Z,730.87
2017-02-27T02:07:48.855Z,730.81
2017-02-27T02:08:48.841Z,730.84
2017-02-27T02:09:48.830Z,730.83
2017-02-27T02:10:48.813Z,730.81
2017-02-27T02:11:48.797Z,730.82
2017-02-27T02:12:48.779Z,730.82
2017-02-27T02:13:48.762Z,730.84
2017-02-27T02:14:48.747Z,730.84
2017-02-27T02:15:48.731Z,730.89
2017-02-27T02:16:48.716Z,730.84
2017-02-27T02:17:48.705Z,730.81
2017-02-27T02:18:48.686Z,730.89
2017-02-27T02:19:48.674Z,730.87
2017-02-27T02:20:48.658Z,730.84
2017-02-27T02:21:48.640Z,730.92
2017-02-27T02:22:48.623Z,730.84
2017-02-27T02:23:48.613Z,730.82
2017-02-27T02:24:48.592Z,730.89
2017-02-27T02:25:48.578Z,730.85
2017-02-27T02:26:48.568Z,730.83
2017-02-27T02:27:48.553Z,730.8
2017-02-27T02:28:48.533Z,730.82
2017-02-27T02:29:48.517Z,730.86
2017-02-27T02:30:48.503Z,730.82
2017-02-27T02:31:48.487Z,730.8
2017-02-27T02:32:48.472Z,730.81
2017-02-27T02:33:48.460Z,730.78
2017-02-27T02:34:48.447Z,730.78
2017-02-27T02:35:48.425Z,730.76
2017-02-27T02:36:48.412Z,730.73
2017-02-27T02:37:48.396Z,730.7
2017-02-27T02:38:48.385Z,730.69
2017-02-27T02:39:48.365Z,730.68
2017-02-27T02:40:48.355Z,730.69
2017-02-27T02:41:48.336Z,730.69
2017-02-27T02:42:48.322Z,730.66
2017-02-27T02:43:48.307Z,730.66
2017-02-27T02:44:48.299Z,730.64
2017-02-27T02:45:48.278Z,730.64
2017-02-27T02:46:48.266Z,730.64
2017-02-27T02:47:48.247Z,730.61
2017-02-27T02:48:48.236Z,730.67
2017-02-27T02:49:48.217Z,730.64
2017-02-27T02:50:48.206Z,730.62
2017-02-27T02:51:48.191Z,730.62
2017-02-27T02:52:48.175Z,730.63
2017-02-27T02:53:48.162Z,730.6
2017-02-27T02:54:48.141Z,730.63
2017-02-27T02:55:48.126Z,730.61
2017-02-27T02:56:48.117Z,730.59
2017-02-27T02:57:48.097Z,730.59
2017-02-27T02:58:48.086Z,730.52
2017-02-27T02:59:48.073Z,730.55
2017-02-27T03:00:48.058Z,730.52
2017-02-27T03:01:48.039Z,730.57
2017-02-27T03:02:48.023Z,730.5
2017-02-27T03:03:48.013Z,730.55
2017-02-27T03:04:47.994Z,730.52
2017-02-27T03:05:47.983Z,730.49
2017-02-27T03:06:47.968Z,730.52
2017-02-27T03:07:47.954Z,730.47
2017-02-27T03:08:47.939Z,730.51
2017-02-27T03:09:47.924Z,730.5
2017-02-27T03:10:47.905Z,730.49
2017-02-27T03:11:47.895Z,730.44
2017-02-27T03:12:47.876Z,730.46
2017-02-27T03:13:47.866Z,730.44
2017-02-27T03:14:47.850Z,730.46
2017-02-27T03:15:47.831Z,730.44
2017-02-27T03:16:47.816Z,730.46
2017-02-27T03:17:47.804Z,730.46
2017-02-27T03:18:47.785Z,730.5
2017-02-27T03:19:47.772Z,730.45
2017-02-27T03:20:47.758Z,730.37
2017-02-27T03:21:47.743Z,730.42
2017-02-27T03:22:47.728Z,730.46
2017-02-27T03:23:47.711Z,730.46
2017-02-27T03:24:47.695Z,730.41
2017-02-27T03:25:47.680Z,730.39
2017-02-27T03:26:47.666Z,730.41
2017-02-27T03:27:47.645Z,730.39
2017-02-27T03:28:47.630Z,730.4
2017-02-27T03:29:47.613Z,730.39
2017-02-27T03:30:47.598Z,730.32
2017-02-27T03:31:47.585Z,730.41
2017-02-27T03:32:47.567Z,730.4
2017-02-27T03:33:47.550Z,730.35
2017-02-27T03:34:47.532Z,730.3
2017-02-27T03:35:47.521Z,730.38
2017-02-27T03:36:47.502Z,730.3
2017-02-27T03:37:47.489Z,730.25
2017-02-27T03:38:47.473Z,730.13
2017-02-27T03:39:47.457Z,730.13
2017-02-27T03:40:47.437Z,730.12
2017-02-27T03:41:47.423Z,730.1
2017-02-27T03:42:47.408Z,730.14
2017-02-27T03:43:47.389Z,730.11
2017-02-27T03:44:47.376Z,730.16
2017-02-27T03:45:47.357Z,730.15
2017-02-27T03:46:47.343Z,729.91
2017-02-27T03:47:47.328Z,729.94
2017-02-27T03:48:47.311Z,729.96
2017-02-27T03:49:47.291Z,730.01
2017-02-27T03:50:47.275Z,729.98
2017-02-27T03:51:47.263Z,730.07
2017-02-27T03:52:47.240Z,730.04
2017-02-27T03:53:47.228Z,729.95
2017-02-27T03:54:47.208Z,729.9
2017-02-27T03:55:47.192Z,729.92
2017-02-27T03:56:47.181Z,729.87
2017-02-27T03:57:47.165Z,729.9
2017-02-27T03:58:47.144Z,729.9
2017-02-27T03:59:47.131Z,729.74
2017-02-27T04:00:47.112Z,729.78
2017-02-27T04:01:47.094Z,729.79
2017-02-27T04:02:47.078Z,729.94
2017-02-27T04:03:47.061Z,729.9
2017-02-27T04:04:47.048Z,729.79
2017-02-27T04:05:47.028Z,729.79
2017-02-27T04:06:47.012Z,729.87
2017-02-27T04:07:46.996Z,729.82
2017-02-27T04:08:46.983Z,729.76
2017-02-27T04:09:46.967Z,729.86
2017-02-27T04:10:46.950Z,729.73
2017-02-27T04:11:46.934Z,729.83
2017-02-27T04:12:46.918Z,729.8
2017-02-27T04:13:46.898Z,729.79
2017-02-27T04:14:46.880Z,729.81
2017-02-27T04:15:46.868Z,729.76
2017-02-27T04:16:46.848Z,729.86
2017-02-27T04:17:46.836Z,729.8
2017-02-27T04:18:46.819Z,729.82
2017-02-27T04:19:46.799Z,729.89
2017-02-27T04:20:46.783Z,729.92
2017-02-27T04:21:46.766Z,729.84
2017-02-27T04:22:46.750Z,729.88
2017-02-27T04:23:46.737Z,729.85
2017-02-27T04:24:46.717Z,729.88
2017-02-27T04:25:46.704Z,729.87
2017-02-27T04:26:46.685Z,729.79
2017-02-27T04:27:46.673Z,729.9
2017-02-27T04:28:46.653Z,729.77
2017-02-27T04:29:46.640Z,729.71
2017-02-27T04:30:46.624Z,729.64
2017-02-27T04:31:46.604Z,729.82
2017-02-27T04:32:46.591Z,729.76
2017-02-27T04:33:46.574Z,730
2017-02-27T04:34:46.559Z,729.75
2017-02-27T04:35:46.540Z,729.85
2017-02-27T04:36:46.523Z,729.86
2017-02-27T04:37:46.510Z,729.66
2017-02-27T04:38:46.494Z,729.61
2017-02-27T04:39:46.479Z,729.64
2017-02-27T04:40:46.462Z,729.61
2017-02-27T04:41:46.446Z,729.7
2017-02-27T04:42:46.429Z,729.71
2017-02-27T04:43:46.412Z,729.68
2017-02-27T04:44:46.393Z,729.68
2017-02-27T04:45:46.376Z,729.61
2017-02-27T04:46:46.360Z,729.63
2017-02-27T04:47:46.348Z,729.54
2017-02-27T04:48:46.332Z,729.45
2017-02-27T04:49:46.312Z,729.48
2017-02-27T04:50:46.300Z,729.44
2017-02-27T04:51:46.280Z,729.5
2017-02-27T04:52:46.267Z,729.51
2017-02-27T04:53:46.248Z,729.42
2017-02-27T04:54:46.234Z,729.5
2017-02-27T04:55:46.215Z,729.49
2017-02-27T04:56:46.199Z,729.51
2017-02-27T04:57:46.187Z,729.46
2017-02-27T04:58:46.171Z,729.36
2017-02-27T04:59:46.155Z,729.44
2017-02-27T05:00:46.136Z,729.45
2017-02-27T05:01:46.121Z,729.49
2017-02-27T05:02:46.109Z,729.57
2017-02-27T05:03:46.088Z,729.52
2017-02-27T05:04:46.073Z,729.51
2017-02-27T05:05:46.056Z,729.51
2017-02-27T05:06:46.040Z,729.46
2017-02-27T05:07:46.029Z,729.42
2017-02-27T05:08:46.014Z,729.32
2017-02-27T05:09:45.997Z,729.33
2017-02-27T05:10:45.979Z,729.21
2017-02-27T05:11:45.966Z,729.13
2017-02-27T05:12:45.949Z,729.13
2017-02-27T05:13:45.931Z,729.22
2017-02-27T05:14:45.920Z,729.28
2017-02-27T05:15:45.904Z,729.2
2017-02-27T05:16:45.887Z,729.09
2017-02-27T05:17:45.872Z,729.17
2017-02-27T05:18:45.856Z,729.14
2017-02-27T05:19:45.842Z,729.22
2017-02-27T05:20:45.821Z,729.25
2017-02-27T05:21:45.805Z,729.14
2017-02-27T05:22:45.788Z,729.15
2017-02-27T05:23:45.773Z,729.28
2017-02-27T05:24:45.762Z,729.25
2017-02-27T05:25:45.746Z,729.34
2017-02-27T05:26:45.730Z,729.26
2017-02-27T05:27:45.710Z,729.23
2017-02-27T05:28:45.698Z,729.25
2017-02-27T05:29:45.680Z,729.24
2017-02-27T05:30:45.668Z,729.19
2017-02-27T05:31:45.651Z,729.21
2017-02-27T05:32:45.636Z,729.2
2017-02-27T05:33:45.617Z,729.23
2017-02-27T05:34:45.602Z,729.24
2017-02-27T05:35:45.585Z,729.16
2017-02-27T05:36:45.577Z,729.16
2017-02-27T05:37:45.559Z,729.14
2017-02-27T05:38:45.543Z,729.11
2017-02-27T05:39:45.527Z,729.11
2017-02-27T05:40:45.512Z,729.04
2017-02-27T05:41:45.497Z,729.08
2017-02-27T05:42:45.476Z,729.12
2017-02-27T05:43:45.462Z,729.08
2017-02-27T05:44:45.450Z,729.1
2017-02-27T05:45:45.429Z,729.09
2017-02-27T05:46:45.414Z,729.1
2017-02-27T05:47:45.401Z,729.1
2017-02-27T05:48:45.388Z,729.13
2017-02-27T05:49:45.369Z,729.09
2017-02-27T05:50:45.355Z,729.09
2017-02-27T05:51:45.339Z,729.06
2017-02-27T05:52:45.325Z,728.99
2017-02-27T05:53:45.308Z,729.02
2017-02-27T05:54:45.294Z,729.01
2017-02-27T05:55:45.282Z,729
2017-02-27T05:56:45.263Z,729
2017-02-27T05:57:45.252Z,728.97
2017-02-27T05:58:45.237Z,729.01
2017-02-27T05:59:45.223Z,728.98
2017-02-27T06:00:45.207Z,728.97
2017-02-27T06:01:45.193Z,728.99
2017-02-27T06:02:45.176Z,729.01
2017-02-27T06:03:45.164Z,728.96
2017-02-27T06:04:45.148Z,729.02
2017-02-27T06:05:45.130Z,728.99
2017-02-27T06:06:45.118Z,729.01
2017-02-27T06:07:45.101Z,729
2017-02-27T06:08:45.085Z,728.99
2017-02-27T06:09:45.072Z,729.01
2017-02-27T06:10:45.057Z,729.03
2017-02-27T06:11:45.046Z,729.03
2017-02-27T06:12:45.032Z,729.01
2017-02-27T06:13:45.013Z,729
2017-02-27T06:14:45.003Z,729.07
2017-02-27T06:15:44.988Z,729.13
2017-02-27T06:16:44.970Z,729.12
2017-02-27T06:17:44.956Z,729.09
2017-02-27T06:18:44.945Z,729.09
2017-02-27T06:19:44.927Z,729.09
2017-02-27T06:20:44.917Z,729.1
2017-02-27T06:21:44.902Z,729.06
2017-02-27T06:22:44.887Z,729.08
2017-02-27T06:23:44.870Z,729.06
2017-02-27T06:24:44.860Z,729.04
2017-02-27T06:25:44.846Z,729.03
2017-02-27T06:26:44.829Z,729.02
2017-02-27T06:27:44.816Z,728.97
2017-02-27T06:28:44.801Z,728.99
2017-02-27T06:29:44.785Z,729
2017-02-27T06:30:44.771Z,728.97
2017-02-27T06:31:44.757Z,728.94
2017-02-27T06:32:44.743Z,728.9
2017-02-27T06:33:44.723Z,728.95
2017-02-27T06:34:44.713Z,728.91
2017-02-27T06:35:44.699Z,728.93
2017-02-27T06:36:44.684Z,728.9
2017-02-27T06:37:44.664Z,728.88
2017-02-27T06:38:44.650Z,728.91
2017-02-27T06:39:44.637Z,728.88
2017-02-27T06:40:44.625Z,728.85
2017-02-27T06:41:44.611Z,728.88
2017-02-27T06:42:44.596Z,728.91
2017-02-27T06:43:44.577Z,728.95
2017-02-27T06:44:44.562Z,728.94
2017-02-27T06:45:44.552Z,728.96
2017-02-27T06:46:44.534Z,728.93
2017-02-27T06:47:44.519Z,728.92
2017-02-27T06:48:44.506Z,728.89
2017-02-27T06:49:44.492Z,728.88
2017-02-27T06:50:44.478Z,728.89
2017-02-27T06:51:44.467Z,728.93
2017-02-27T06:52:44.450Z,728.97
2017-02-27T06:53:44.439Z,728.91
2017-02-27T06:54:44.425Z,728.89
2017-02-27T06:55:44.410Z,728.84
2017-02-27T06:56:44.393Z,728.86
2017-02-27T06:57:44.379Z,728.88
2017-02-27T06:58:44.368Z,728.82
2017-02-27T06:59:44.350Z,728.8
2017-02-27T07:00:44.340Z,728.82
2017-02-27T07:01:44.326Z,728.87
2017-02-27T07:02:44.307Z,728.77
2017-02-27T07:03:44.298Z,728.82
2017-02-27T07:04:44.280Z,728.83
2017-02-27T07:05:44.270Z,728.81
2017-02-27T07:06:44.252Z,728.82
2017-02-27T07:07:44.241Z,728.82
2017-02-27T07:08:44.230Z,728.83
2017-02-27T07:09:44.213Z,728.82
2017-02-27T07:10:44.213Z,728.81
2017-02-27T07:11:44.184Z,728.82
2017-02-27T07:12:44.167Z,728.79
2017-02-27T07:13:44.153Z,728.78
2017-02-27T07:14:44.141Z,728.85
2017-02-27T07:15:44.123Z,728.8
2017-02-27T07:16:44.109Z,728.7
2017-02-27T07:17:44.094Z,728.75
2017-02-27T07:18:44.084Z,728.75
2017-02-27T07:19:44.065Z,728.67
2017-02-27T07:20:44.049Z,728.72
2017-02-27T07:21:44.035Z,728.71
2017-02-27T07:22:44.023Z,728.73
2017-02-27T07:23:44.006Z,728.75
2017-02-27T07:24:43.990Z,728.8
2017-02-27T07:25:43.974Z,728.76
2017-02-27T07:26:43.960Z,728.77
2017-02-27T07:27:43.944Z,728.7
2017-02-27T07:28:43.928Z,728.73
2017-02-27T07:29:43.918Z,728.71
2017-02-27T07:30:43.904Z,728.77
2017-02-27T07:31:43.892Z,728.68
2017-02-27T07:32:43.870Z,728.74
2017-02-27T07:33:43.855Z,728.71
2017-02-27T07:34:43.840Z,728.63
2017-02-27T07:35:43.828Z,728.64
2017-02-27T07:36:43.814Z,728.55
2017-02-27T07:37:43.799Z,728.58
2017-02-27T07:38:43.784Z,728.61
2017-02-27T07:39:43.764Z,728.67
2017-02-27T07:40:43.754Z,728.63
2017-02-27T07:41:43.734Z,728.6
2017-02-27T07:42:43.719Z,728.66
2017-02-27T07:43:43.703Z,728.69
2017-02-27T07:44:43.689Z,728.7
2017-02-27T07:45:43.677Z,728.68
2017-02-27T07:46:43.657Z,728.71
2017-02-27T07:47:43.645Z,728.71
2017-02-27T07:48:43.630Z,728.72
2017-02-27T07:49:43.615Z,728.74
2017-02-27T07:50:43.599Z,728.7
2017-02-27T07:51:43.580Z,728.71
2017-02-27T07:52:43.566Z,728.68
2017-02-27T07:53:43.554Z,728.72
2017-02-27T07:54:43.539Z,728.73
2017-02-27T07:55:43.525Z,728.71
2017-02-27T07:56:43.510Z,728.76
2017-02-27T07:57:43.491Z,728.7
2017-02-27T07:58:43.479Z,728.73
2017-02-27T07:59:43.466Z,728.72
2017-02-27T08:00:43.447Z,728.71
2017-02-27T08:01:43.433Z,728.66
2017-02-27T08:02:43.418Z,728.63
2017-02-27T08:03:43.404Z,728.68
2017-02-27T08:04:43.390Z,728.66
2017-02-27T08:05:43.379Z,728.69
2017-02-27T08:06:43.366Z,728.64
2017-02-27T08:07:43.349Z,728.59
2017-02-27T08:08:43.333Z,728.53
2017-02-27T08:09:43.320Z,728.64
2017-02-27T08:10:43.306Z,728.61
2017-02-27T08:11:43.293Z,728.55
2017-02-27T08:12:43.283Z,728.56
2017-02-27T08:13:43.269Z,728.56
2017-02-27T08:14:43.257Z,728.58
2017-02-27T08:15:43.238Z,728.58
2017-02-27T08:16:43.226Z,728.51
2017-02-27T08:17:43.213Z,728.6
2017-02-27T08:18:43.205Z,728.55
2017-02-27T08:19:43.191Z,728.55
2017-02-27T08:20:43.178Z,728.51
2017-02-27T08:21:43.166Z,728.54
2017-02-27T08:22:43.150Z,728.56
2017-02-27T08:23:43.137Z,728.51
2017-02-27T08:24:43.125Z,728.5
2017-02-27T08:25:43.114Z,728.52
2017-02-27T08:26:43.103Z,728.52
2017-02-27T08:27:43.091Z,728.55
2017-02-27T08:28:43.075Z,728.56
2017-02-27T08:29:43.067Z,728.58
2017-02-27T08:30:43.054Z,728.46
2017-02-27T08:31:43.039Z,728.29
2017-02-27T08:32:43.035Z,728.24
2017-02-27T08:33:43.016Z,728.46
2017-02-27T08:34:43.004Z,728.43
2017-02-27T08:35:42.997Z,728.42
2017-02-27T08:36:42.986Z,728.45
2017-02-27T08:37:42.969Z,728.38
2017-02-27T08:38:42.963Z,728.47
2017-02-27T08:39:42.952Z,728.39
2017-02-27T08:40:42.937Z,728.34
2017-02-27T08:41:42.924Z,728.4
2017-02-27T08:42:42.913Z,728.38
2017-02-27T08:43:42.905Z,728.35
2017-02-27T08:44:42.893Z,728.38
2017-02-27T08:45:42.878Z,728.42
2017-02-27T08:46:42.866Z,728.4
2017-02-27T08:47:42.856Z,728.37
2017-02-27T08:48:42.844Z,728.37
2017-02-27T08:49:42.836Z,728.4
2017-02-27T08:50:42.825Z,728.34
2017-02-27T08:51:42.814Z,728.31
2017-02-27T08:52:42.800Z,728.27
2017-02-27T08:53:42.790Z,728.45
2017-02-27T08:54:42.779Z,728.41
2017-02-27T08:55:42.767Z,728.34
2017-02-27T08:56:42.752Z,728.37
2017-02-27T08:57:42.742Z,728.4
2017-02-27T08:58:42.729Z,728.53
2017-02-27T08:59:42.717Z,728.21
2017-02-27T09:00:42.706Z,728.29
2017-02-27T09:01:42.698Z,728.3
2017-02-27T09:02:42.686Z,728.32
2017-02-27T09:03:42.669Z,728.33
2017-02-27T09:04:42.656Z,728.36
2017-02-27T09:05:42.645Z,728.32
2017-02-27T09:06:42.631Z,728.29
2017-02-27T09:07:42.618Z,728.4
2017-02-27T09:08:42.609Z,728.27
2017-02-27T09:09:42.598Z,728.26
2017-02-27T09:10:42.580Z,728.31
2017-02-27T09:11:42.568Z,728.26
2017-02-27T09:12:42.556Z,728.4
2017-02-27T09:13:42.547Z,728.4
2017-02-27T09:14:42.534Z,728.29
2017-02-27T09:15:42.517Z,728.12
2017-02-27T09:16:42.504Z,728.22
2017-02-27T09:17:42.496Z,728.31
2017-02-27T09:18:42.483Z,728.13
2017-02-27T09:19:42.466Z,728.03
2017-02-27T09:20:42.455Z,728.21
2017-02-27T09:21:42.445Z,728.07
2017-02-27T09:22:42.432Z,728.1
2017-02-27T09:23:42.420Z,728.09
2017-02-27T09:24:42.403Z,728.19
2017-02-27T09:25:42.390Z,728.14
2017-02-27T09:26:42.378Z,727.99
2017-02-27T09:27:42.368Z,728.08
2017-02-27T09:28:42.350Z,728.08
2017-02-27T09:29:42.337Z,728.11
2017-02-27T09:30:42.328Z,728.14
2017-02-27T09:31:42.313Z,728.07
2017-02-27T09:32:42.299Z,728.13
2017-02-27T09:33:42.286Z,728.16
2017-02-27T09:34:42.276Z,728.07
2017-02-27T09:35:42.264Z,727.9
2017-02-27T09:36:42.246Z,728.11
2017-02-27T09:37:42.238Z,727.88
2017-02-27T09:38:42.224Z,728.12
2017-02-27T09:39:42.207Z,728.17
2017-02-27T09:40:42.194Z,728.03
2017-02-27T09:41:42.181Z,728.1
2017-02-27T09:42:42.169Z,727.89
2017-02-27T09:43:42.159Z,727.95
2017-02-27T09:44:42.143Z,727.93
2017-02-27T09:45:42.131Z,727.95
2017-02-27T09:46:42.116Z,727.85
2017-02-27T09:47:42.107Z,727.94
2017-02-27T09:48:42.092Z,727.96
2017-02-27T09:49:42.081Z,728
2017-02-27T09:50:42.068Z,727.92
2017-02-27T09:51:42.051Z,727.96
2017-02-27T09:52:42.042Z,727.79
2017-02-27T09:53:42.024Z,727.78
2017-02-27T09:54:42.010Z,727.76
2017-02-27T09:55:41.997Z,727.73
2017-02-27T09:56:41.987Z,727.64
2017-02-27T09:57:41.973Z,727.71
2017-02-27T09:58:41.955Z,727.74
2017-02-27T09:59:41.945Z,727.66
2017-02-27T10:00:41.932Z,727.64
2017-02-27T10:01:41.916Z,727.68
2017-02-27T10:02:41.898Z,727.66
2017-02-27T10:03:41.884Z,727.56
2017-02-27T10:04:41.873Z,727.64
2017-02-27T10:05:41.856Z,727.71
2017-02-27T10:06:41.837Z,727.72
2017-02-27T10:07:41.823Z,727.57
2017-02-27T10:08:41.807Z,727.66
2017-02-27T10:09:41.796Z,727.74
2017-02-27T10:10:41.777Z,727.65
2017-02-27T10:11:41.761Z,727.54
2017-02-27T10:12:41.745Z,727.74
2017-02-27T10:13:41.733Z,727.73
2017-02-27T10:14:41.716Z,727.58
2017-02-27T10:15:41.699Z,727.62
2017-02-27T10:16:41.683Z,727.62
2017-02-27T10:17:41.672Z,727.76
2017-02-27T10:18:41.657Z,727.56
2017-02-27T10:19:41.640Z,727.8
2017-02-27T10:20:41.626Z,727.39
2017-02-27T10:21:41.607Z,727.67
2017-02-27T10:22:41.597Z,727.57
2017-02-27T10:23:41.577Z,727.62
2017-02-27T10:24:41.562Z,727.63
2017-02-27T10:25:41.548Z,727.6
2017-02-27T10:26:41.537Z,727.63
2017-02-27T10:27:41.522Z,727.72
2017-02-27T10:28:41.502Z,727.68
2017-02-27T10:29:41.492Z,727.51
2017-02-27T10:30:41.473Z,727.57
2017-02-27T10:31:41.461Z,727.38
2017-02-27T10:32:41.446Z,727.55
2017-02-27T10:33:41.426Z,727.44
2017-02-27T10:34:41.414Z,727.26
2017-02-27T10:35:41.396Z,727.44
2017-02-27T10:36:41.383Z,727.54
2017-02-27T10:37:41.365Z,727.49
2017-02-27T10:38:41.348Z,727.41
2017-02-27T10:39:41.332Z,727.41
2017-02-27T10:40:41.321Z,727.6
2017-02-27T10:41:41.304Z,727.48
2017-02-27T10:42:41.285Z,727.39
2017-02-27T10:43:41.275Z,727.2
2017-02-27T10:44:41.259Z,727.44
2017-02-27T10:45:41.243Z,727.45
2017-02-27T10:46:41.224Z,727.42
2017-02-27T10:47:41.213Z,727.3
2017-02-27T10:48:41.194Z,727.26
2017-02-27T10:49:41.179Z,727.29
2017-02-27T10:50:41.168Z,727.32
2017-02-27T10:51:41.149Z,727.32
2017-02-27T10:52:41.135Z,727.59
2017-02-27T10:53:41.119Z,727.38
2017-02-27T10:54:41.104Z,727.2
2017-02-27T10:55:41.091Z,727.09
2017-02-27T10:56:41.079Z,727.19
2017-02-27T10:57:41.060Z,727.09
2017-02-27T10:58:41.049Z,727.15
2017-02-27T10:59:41.030Z,726.94
2017-02-27T11:00:41.018Z,727.27
2017-02-27T11:01:41.003Z,727.25
2017-02-27T11:02:40.984Z,727.27
2017-02-27T11:03:40.969Z,727.26
2017-02-27T11:04:40.957Z,727.24
2017-02-27T11:05:40.938Z,727.09
2017-02-27T11:06:40.923Z,727.18
2017-02-27T11:07:40.910Z,727.19
2017-02-27T11:08:40.895Z,727.25
2017-02-27T11:09:40.880Z,727.13
2017-02-27T11:10:40.861Z,727.25
2017-02-27T11:11:40.845Z,727.07
2017-02-27T11:12:40.834Z,727.24
2017-02-27T11:13:40.815Z,727.09
2017-02-27T11:14:40.800Z,727.17
2017-02-27T11:15:40.787Z,727.05
2017-02-27T11:16:40.772Z,727
2017-02-27T11:17:40.757Z,727
2017-02-27T11:18:40.741Z,727.15
2017-02-27T11:19:40.725Z,727.11
2017-02-27T11:20:40.710Z,727.08
2017-02-27T11:21:40.691Z,726.95
2017-02-27T11:22:40.674Z,726.84
2017-02-27T11:23:40.663Z,726.93
2017-02-27T11:24:40.647Z,726.86
2017-02-27T11:25:40.626Z,727.09
2017-02-27T11:26:40.615Z,726.78
2017-02-27T11:27:40.599Z,726.76
2017-02-27T11:28:40.580Z,726.83
2017-02-27T11:29:40.568Z,726.91
2017-02-27T11:30:40.552Z,727.03
2017-02-27T11:31:40.538Z,726.9
2017-02-27T11:32:40.521Z,726.8
2017-02-27T11:33:40.502Z,726.95
2017-02-27T11:34:40.487Z,726.94
2017-02-27T11:35:40.476Z,726.86
2017-02-27T11:36:40.460Z,726.62
2017-02-27T11:37:40.445Z,726.68
2017-02-27T11:38:40.430Z,726.73
2017-02-27T11:39:40.415Z,726.6
2017-02-27T11:40:40.395Z,726.67
2017-02-27T11:41:40.380Z,726.73
2017-02-27T11:42:40.367Z,726.68
2017-02-27T11:43:40.349Z,726.69
2017-02-27T11:44:40.337Z,726.67
2017-02-27T11:45:40.323Z,726.35
2017-02-27T11:46:40.307Z,726.54
2017-02-27T11:47:40.287Z,726.6
2017-02-27T11:48:40.276Z,726.62
2017-02-27T11:49:40.260Z,726.77
2017-02-27T11:50:40.247Z,726.72
2017-02-27T11:51:40.224Z,726.62
2017-02-27T11:52:40.209Z,726.73
2017-02-27T11:53:40.194Z,726.8
2017-02-27T11:54:40.181Z,726.63
2017-02-27T11:55:40.166Z,726.77
2017-02-27T11:56:40.150Z,726.59
2017-02-27T11:57:40.131Z,726.63
2017-02-27T11:58:40.115Z,726.67
2017-02-27T11:59:40.104Z,726.51
2017-02-27T12:00:40.085Z,726.45
2017-02-27T12:01:40.070Z,726.55
2017-02-27T12:02:40.054Z,726.42
2017-02-27T12:03:40.044Z,726.42
2017-02-27T12:04:40.025Z,726.52
2017-02-27T12:05:40.013Z,726.5
2017-02-27T12:06:39.999Z,726.42
2017-02-27T12:07:39.985Z,726.28
2017-02-27T12:08:39.966Z,726.22
2017-02-27T12:09:39.954Z,726.29
2017-02-27T12:10:39.940Z,726.42
2017-02-27T12:11:39.925Z,726.19
2017-02-27T12:12:39.906Z,726.43
2017-02-27T12:13:39.890Z,726.27
2017-02-27T12:14:39.876Z,726.24
2017-02-27T12:15:39.864Z,726.4
2017-02-27T12:16:39.845Z,726.4
2017-02-27T12:17:39.830Z,726.23
2017-02-27T12:18:39.820Z,726.4
2017-02-27T12:19:39.805Z,726.42
2017-02-27T12:20:39.789Z,726.39
2017-02-27T12:21:39.772Z,726.23
2017-02-27T12:22:39.962Z,726.23
2017-02-27T12:23:39.944Z,726.31
2017-02-27T12:24:39.726Z,726.12
2017-02-27T12:25:39.713Z,726.19
2017-02-27T12:26:39.698Z,726.14
2017-02-27T12:27:39.685Z,725.99
2017-02-27T12:28:39.667Z,726.3
2017-02-27T12:29:39.657Z,726.29
2017-02-27T12:30:39.638Z,726.09
2017-02-27T12:31:39.626Z,726.14
2017-02-27T12:32:39.608Z,726.23
2017-02-27T12:33:39.597Z,726.12
2017-02-27T12:34:39.582Z,726.06
2017-02-27T12:35:39.561Z,726.08
2017-02-27T12:36:39.548Z,726.27
2017-02-27T12:37:39.536Z,726.37
2017-02-27T12:38:39.521Z,726.24
2017-02-27T12:39:39.504Z,726.27
2017-02-27T12:40:39.488Z,726.04
2017-02-27T12:41:39.473Z,726.22
2017-02-27T12:42:39.463Z,726.32
2017-02-27T12:43:39.442Z,726.35
2017-02-27T12:44:39.428Z,726.35
2017-02-27T12:45:39.417Z,726.17
2017-02-27T12:46:39.397Z,726
2017-02-27T12:47:39.382Z,726.2
2017-02-27T12:48:39.367Z,725.96